sensor_id;sensor_type;location;lat;lon;timestamp;P1;durP1;ratioP1;P2;durP2;ratioP2
46230;SDS011;31949;51.404;-0.038;2023-05-01T00:02:24;13.30;;;10.85;;
46230;SDS011;31949;51.404;-0.038;2023-05-01T00:04:52;10.45;;;9.07;;
46230;SDS011;31949;51.404;-0.038;2023-05-01T00:07:20;11.82;;;9.40;;
46230;SDS011;31949;51.404;-0.038;2023-05-01T00:09:47;12.77;;;9.77;;
46230;SDS011;31949;51.404;-0.038;2023-05-01T00:12:14;11.65;;;9.35;;
46230;SDS011;31949;51.404;-0.038;2023-05-01T00:14:41;11.40;;;10.00;;
46230;SDS011;31949;51.404;-0.038;2023-05-01T00:17:09;12.00;;;10.07;;
46230;SDS011;31949;51.404;-0.038;2023-05-01T00:19:36;13.63;;;10.20;;
46230;SDS011;31949;51.404;-0.038;2023-05-01T00:22:03;13.23;;;10.57;;
46230;SDS011;31949;51.404;-0.038;2023-05-01T00:24:30;13.10;;;10.45;;
46230;SDS011;31949;51.404;-0.038;2023-05-01T00:26:58;13.68;;;10.05;;
46230;SDS011;31949;51.404;-0.038;2023-05-01T00:29:25;11.20;;;9.75;;
46230;SDS011;31949;51.404;-0.038;2023-05-01T00:31:53;15.82;;;11.25;;
46230;SDS011;31949;51.404;-0.038;2023-05-01T00:34:20;15.70;;;11.93;;
46230;SDS011;31949;51.404;-0.038;2023-05-01T00:36:48;17.15;;;12.60;;
46230;SDS011;31949;51.404;-0.038;2023-05-01T00:39:15;16.85;;;13.45;;
46230;SDS011;31949;51.404;-0.038;2023-05-01T00:41:42;17.90;;;13.65;;
46230;SDS011;31949;51.404;-0.038;2023-05-01T00:44:09;21.60;;;16.88;;
46230;SDS011;31949;51.404;-0.038;2023-05-01T00:46:37;20.42;;;13.63;;
46230;SDS011;31949;51.404;-0.038;2023-05-01T00:49:04;17.80;;;13.70;;
46230;SDS011;31949;51.404;-0.038;2023-05-01T00:51:31;19.50;;;14.95;;
46230;SDS011;31949;51.404;-0.038;2023-05-01T00:54:00;20.75;;;13.93;;
46230;SDS011;31949;51.404;-0.038;2023-05-01T00:56:29;18.27;;;14.00;;
46230;SDS011;31949;51.404;-0.038;2023-05-01T00:58:57;20.10;;;15.65;;
46230;SDS011;31949;51.404;-0.038;2023-05-01T01:01:25;17.25;;;14.63;;
46230;SDS011;31949;51.404;-0.038;2023-05-01T01:03:54;19.30;;;13.23;;
46230;SDS011;31949;51.404;-0.038;2023-05-01T01:14:21;18.20;;;13.25;;
46230;SDS011;31949;51.404;-0.038;2023-05-01T01:16:56;14.90;;;11.90;;
46230;SDS011;31949;51.404;-0.038;2023-05-01T01:22:27;18.23;;;13.95;;
46230;SDS011;31949;51.404;-0.038;2023-05-01T01:25:06;17.92;;;13.70;;
46230;SDS011;31949;51.404;-0.038;2023-05-01T01:39:15;19.10;;;13.88;;
46230;SDS011;31949;51.404;-0.038;2023-05-01T01:42:07;15.82;;;13.02;;
46230;SDS011;31949;51.404;-0.038;2023-05-01T01:44:38;17.67;;;14.38;;
46230;SDS011;31949;51.404;-0.038;2023-05-01T01:47:25;16.40;;;13.05;;
46230;SDS011;31949;51.404;-0.038;2023-05-01T01:49:58;15.57;;;12.65;;
46230;SDS011;31949;51.404;-0.038;2023-05-01T01:52:30;17.30;;;13.70;;
46230;SDS011;31949;51.404;-0.038;2023-05-01T01:55:08;14.38;;;11.93;;
46230;SDS011;31949;51.404;-0.038;2023-05-01T01:57:38;13.75;;;9.90;;
46230;SDS011;31949;51.404;-0.038;2023-05-01T02:00:08;15.40;;;12.10;;
46230;SDS011;31949;51.404;-0.038;2023-05-01T02:02:43;17.40;;;12.77;;
46230;SDS011;31949;51.404;-0.038;2023-05-01T02:05:15;18.20;;;12.98;;
46230;SDS011;31949;51.404;-0.038;2023-05-01T02:07:44;13.88;;;11.50;;
46230;SDS011;31949;51.404;-0.038;2023-05-01T02:10:14;13.60;;;11.70;;
46230;SDS011;31949;51.404;-0.038;2023-05-01T02:12:43;18.13;;;12.23;;
46230;SDS011;31949;51.404;-0.038;2023-05-01T02:15:14;11.48;;;10.23;;
46230;SDS011;31949;51.404;-0.038;2023-05-01T02:17:44;14.43;;;10.98;;
46230;SDS011;31949;51.404;-0.038;2023-05-01T02:20:11;13.82;;;10.57;;
46230;SDS011;31949;51.404;-0.038;2023-05-01T02:22:40;14.60;;;10.25;;
46230;SDS011;31949;51.404;-0.038;2023-05-01T02:25:08;12.55;;;10.82;;
46230;SDS011;31949;51.404;-0.038;2023-05-01T02:27:39;12.27;;;10.50;;
46230;SDS011;31949;51.404;-0.038;2023-05-01T02:30:16;13.98;;;10.73;;
46230;SDS011;31949;51.404;-0.038;2023-05-01T02:32:44;14.15;;;11.23;;
46230;SDS011;31949;51.404;-0.038;2023-05-01T02:35:11;12.50;;;10.60;;
46230;SDS011;31949;51.404;-0.038;2023-05-01T02:37:38;13.95;;;11.52;;
46230;SDS011;31949;51.404;-0.038;2023-05-01T02:40:06;15.77;;;11.82;;
46230;SDS011;31949;51.404;-0.038;2023-05-01T02:42:34;17.65;;;13.68;;
46230;SDS011;31949;51.404;-0.038;2023-05-01T02:45:04;21.55;;;14.88;;
46230;SDS011;31949;51.404;-0.038;2023-05-01T02:47:36;16.27;;;13.40;;
46230;SDS011;31949;51.404;-0.038;2023-05-01T02:50:04;16.17;;;13.32;;
46230;SDS011;31949;51.404;-0.038;2023-05-01T02:52:33;16.58;;;11.95;;
46230;SDS011;31949;51.404;-0.038;2023-05-01T02:55:22;14.88;;;11.55;;
46230;SDS011;31949;51.404;-0.038;2023-05-01T02:57:49;14.90;;;12.20;;
46230;SDS011;31949;51.404;-0.038;2023-05-01T03:00:17;14.02;;;11.13;;
46230;SDS011;31949;51.404;-0.038;2023-05-01T03:02:45;17.30;;;12.98;;
46230;SDS011;31949;51.404;-0.038;2023-05-01T03:05:12;14.70;;;11.60;;
46230;SDS011;31949;51.404;-0.038;2023-05-01T03:07:40;16.60;;;13.07;;
46230;SDS011;31949;51.404;-0.038;2023-05-01T03:10:08;15.80;;;13.15;;
46230;SDS011;31949;51.404;-0.038;2023-05-01T03:12:36;20.95;;;14.18;;
46230;SDS011;31949;51.404;-0.038;2023-05-01T03:15:03;20.85;;;15.07;;
46230;SDS011;31949;51.404;-0.038;2023-05-01T03:17:31;18.55;;;14.38;;
46230;SDS011;31949;51.404;-0.038;2023-05-01T03:19:59;20.30;;;14.23;;
46230;SDS011;31949;51.404;-0.038;2023-05-01T03:22:30;20.90;;;15.52;;
46230;SDS011;31949;51.404;-0.038;2023-05-01T03:24:58;19.77;;;14.32;;
46230;SDS011;31949;51.404;-0.038;2023-05-01T03:27:26;23.65;;;16.45;;
46230;SDS011;31949;51.404;-0.038;2023-05-01T03:29:53;20.10;;;14.90;;
46230;SDS011;31949;51.404;-0.038;2023-05-01T03:32:22;21.38;;;15.45;;
46230;SDS011;31949;51.404;-0.038;2023-05-01T03:34:51;19.70;;;13.63;;
46230;SDS011;31949;51.404;-0.038;2023-05-01T03:37:19;19.80;;;14.18;;
46230;SDS011;31949;51.404;-0.038;2023-05-01T03:39:47;20.95;;;13.80;;
46230;SDS011;31949;51.404;-0.038;2023-05-01T03:42:43;18.30;;;13.05;;
46230;SDS011;31949;51.404;-0.038;2023-05-01T03:45:18;21.05;;;12.55;;
46230;SDS011;31949;51.404;-0.038;2023-05-01T03:47:45;22.38;;;15.00;;
46230;SDS011;31949;51.404;-0.038;2023-05-01T03:50:13;19.23;;;12.80;;
46230;SDS011;31949;51.404;-0.038;2023-05-01T03:52:42;20.13;;;14.73;;
46230;SDS011;31949;51.404;-0.038;2023-05-01T03:55:09;22.00;;;14.90;;
46230;SDS011;31949;51.404;-0.038;2023-05-01T03:57:39;23.13;;;14.13;;
46230;SDS011;31949;51.404;-0.038;2023-05-01T04:00:07;21.52;;;15.23;;
46230;SDS011;31949;51.404;-0.038;2023-05-01T04:02:41;19.63;;;14.40;;
46230;SDS011;31949;51.404;-0.038;2023-05-01T04:05:12;28.02;;;18.73;;
46230;SDS011;31949;51.404;-0.038;2023-05-01T04:07:46;23.80;;;17.27;;
46230;SDS011;31949;51.404;-0.038;2023-05-01T04:10:13;21.80;;;17.17;;
46230;SDS011;31949;51.404;-0.038;2023-05-01T04:12:47;27.17;;;17.75;;
46230;SDS011;31949;51.404;-0.038;2023-05-01T04:15:14;30.15;;;18.90;;
46230;SDS011;31949;51.404;-0.038;2023-05-01T04:17:43;26.73;;;16.65;;
46230;SDS011;31949;51.404;-0.038;2023-05-01T04:20:10;24.60;;;16.63;;
46230;SDS011;31949;51.404;-0.038;2023-05-01T04:22:38;21.90;;;16.15;;
46230;SDS011;31949;51.404;-0.038;2023-05-01T04:25:05;22.80;;;15.65;;
46230;SDS011;31949;51.404;-0.038;2023-05-01T04:27:34;22.98;;;15.10;;
46230;SDS011;31949;51.404;-0.038;2023-05-01T04:30:01;20.13;;;14.27;;
46230;SDS011;31949;51.404;-0.038;2023-05-01T04:32:30;18.83;;;13.27;;
46230;SDS011;31949;51.404;-0.038;2023-05-01T04:34:57;16.63;;;11.18;;
46230;SDS011;31949;51.404;-0.038;2023-05-01T04:37:25;20.10;;;12.25;;
46230;SDS011;31949;51.404;-0.038;2023-05-01T04:39:53;18.23;;;11.52;;
46230;SDS011;31949;51.404;-0.038;2023-05-01T04:42:22;21.20;;;12.93;;
46230;SDS011;31949;51.404;-0.038;2023-05-01T04:44:55;17.73;;;10.35;;
46230;SDS011;31949;51.404;-0.038;2023-05-01T04:47:22;16.05;;;8.95;;
46230;SDS011;31949;51.404;-0.038;2023-05-01T04:49:50;16.83;;;9.45;;
46230;SDS011;31949;51.404;-0.038;2023-05-01T04:52:17;10.02;;;8.20;;
46230;SDS011;31949;51.404;-0.038;2023-05-01T04:54:50;13.38;;;8.13;;
46230;SDS011;31949;51.404;-0.038;2023-05-01T04:57:20;14.38;;;7.55;;
46230;SDS011;31949;51.404;-0.038;2023-05-01T04:59:48;13.15;;;7.32;;
46230;SDS011;31949;51.404;-0.038;2023-05-01T05:02:15;11.38;;;7.13;;
46230;SDS011;31949;51.404;-0.038;2023-05-01T05:04:42;12.98;;;6.90;;
46230;SDS011;31949;51.404;-0.038;2023-05-01T05:07:09;8.88;;;6.38;;
46230;SDS011;31949;51.404;-0.038;2023-05-01T05:09:57;15.38;;;7.25;;
46230;SDS011;31949;51.404;-0.038;2023-05-01T05:12:37;10.60;;;5.82;;
46230;SDS011;31949;51.404;-0.038;2023-05-01T05:15:05;10.48;;;6.82;;
46230;SDS011;31949;51.404;-0.038;2023-05-01T05:17:34;10.18;;;7.03;;
46230;SDS011;31949;51.404;-0.038;2023-05-01T05:20:01;10.32;;;6.60;;
46230;SDS011;31949;51.404;-0.038;2023-05-01T05:22:28;11.77;;;6.28;;
46230;SDS011;31949;51.404;-0.038;2023-05-01T05:25:14;8.63;;;6.18;;
46230;SDS011;31949;51.404;-0.038;2023-05-01T05:27:41;10.20;;;5.90;;
46230;SDS011;31949;51.404;-0.038;2023-05-01T05:30:08;10.35;;;7.25;;
46230;SDS011;31949;51.404;-0.038;2023-05-01T05:32:37;10.00;;;6.18;;
46230;SDS011;31949;51.404;-0.038;2023-05-01T05:35:04;9.18;;;5.22;;
46230;SDS011;31949;51.404;-0.038;2023-05-01T05:37:32;9.60;;;5.53;;
46230;SDS011;31949;51.404;-0.038;2023-05-01T05:40:00;8.15;;;5.93;;
46230;SDS011;31949;51.404;-0.038;2023-05-01T05:42:31;10.15;;;5.43;;
46230;SDS011;31949;51.404;-0.038;2023-05-01T05:45:04;9.47;;;5.27;;
46230;SDS011;31949;51.404;-0.038;2023-05-01T05:47:32;11.15;;;5.35;;
46230;SDS011;31949;51.404;-0.038;2023-05-01T05:50:00;9.68;;;4.68;;
46230;SDS011;31949;51.404;-0.038;2023-05-01T05:52:28;8.80;;;5.28;;
46230;SDS011;31949;51.404;-0.038;2023-05-01T05:54:56;10.20;;;5.25;;
46230;SDS011;31949;51.404;-0.038;2023-05-01T05:57:24;8.27;;;4.35;;
46230;SDS011;31949;51.404;-0.038;2023-05-01T05:59:51;6.20;;;4.32;;
46230;SDS011;31949;51.404;-0.038;2023-05-01T06:02:22;7.78;;;4.00;;
46230;SDS011;31949;51.404;-0.038;2023-05-01T06:04:50;8.23;;;3.58;;
46230;SDS011;31949;51.404;-0.038;2023-05-01T06:07:20;7.25;;;3.88;;
46230;SDS011;31949;51.404;-0.038;2023-05-01T06:09:48;8.50;;;4.22;;
46230;SDS011;31949;51.404;-0.038;2023-05-01T06:12:16;10.25;;;4.10;;
46230;SDS011;31949;51.404;-0.038;2023-05-01T06:14:44;9.75;;;5.18;;
46230;SDS011;31949;51.404;-0.038;2023-05-01T06:17:11;11.02;;;4.30;;
46230;SDS011;31949;51.404;-0.038;2023-05-01T06:19:39;13.35;;;5.43;;
46230;SDS011;31949;51.404;-0.038;2023-05-01T06:22:09;9.45;;;4.53;;
46230;SDS011;31949;51.404;-0.038;2023-05-01T06:24:46;9.88;;;5.25;;
46230;SDS011;31949;51.404;-0.038;2023-05-01T06:27:14;12.50;;;5.20;;
46230;SDS011;31949;51.404;-0.038;2023-05-01T06:29:41;12.48;;;5.50;;
46230;SDS011;31949;51.404;-0.038;2023-05-01T06:32:08;13.63;;;5.35;;
46230;SDS011;31949;51.404;-0.038;2023-05-01T06:34:35;12.15;;;4.90;;
46230;SDS011;31949;51.404;-0.038;2023-05-01T06:37:02;13.63;;;4.78;;
46230;SDS011;31949;51.404;-0.038;2023-05-01T06:39:31;10.13;;;4.63;;
46230;SDS011;31949;51.404;-0.038;2023-05-01T06:41:59;11.15;;;5.05;;
46230;SDS011;31949;51.404;-0.038;2023-05-01T06:44:31;13.82;;;5.10;;
46230;SDS011;31949;51.404;-0.038;2023-05-01T06:47:00;9.77;;;4.32;;
46230;SDS011;31949;51.404;-0.038;2023-05-01T06:49:27;13.00;;;5.13;;
46230;SDS011;31949;51.404;-0.038;2023-05-01T06:51:54;9.40;;;4.07;;
46230;SDS011;31949;51.404;-0.038;2023-05-01T06:54:21;10.05;;;5.07;;
46230;SDS011;31949;51.404;-0.038;2023-05-01T06:56:49;10.13;;;4.63;;
46230;SDS011;31949;51.404;-0.038;2023-05-01T06:59:16;10.35;;;4.45;;
46230;SDS011;31949;51.404;-0.038;2023-05-01T07:01:43;9.23;;;4.28;;
46230;SDS011;31949;51.404;-0.038;2023-05-01T07:04:10;8.40;;;4.05;;
46230;SDS011;31949;51.404;-0.038;2023-05-01T07:06:38;9.20;;;4.00;;
46230;SDS011;31949;51.404;-0.038;2023-05-01T07:09:05;7.90;;;4.80;;
46230;SDS011;31949;51.404;-0.038;2023-05-01T07:11:32;9.90;;;4.10;;
46230;SDS011;31949;51.404;-0.038;2023-05-01T07:13:59;10.60;;;4.90;;
46230;SDS011;31949;51.404;-0.038;2023-05-01T07:16:27;8.68;;;5.18;;
46230;SDS011;31949;51.404;-0.038;2023-05-01T07:18:54;13.57;;;6.05;;
46230;SDS011;31949;51.404;-0.038;2023-05-01T07:21:21;10.10;;;5.30;;
46230;SDS011;31949;51.404;-0.038;2023-05-01T07:23:48;10.73;;;4.88;;
46230;SDS011;31949;51.404;-0.038;2023-05-01T07:26:16;9.05;;;4.25;;
46230;SDS011;31949;51.404;-0.038;2023-05-01T07:28:43;11.68;;;4.85;;
46230;SDS011;31949;51.404;-0.038;2023-05-01T07:31:10;10.02;;;5.43;;
46230;SDS011;31949;51.404;-0.038;2023-05-01T07:33:38;11.38;;;5.38;;
46230;SDS011;31949;51.404;-0.038;2023-05-01T07:36:05;9.68;;;4.80;;
46230;SDS011;31949;51.404;-0.038;2023-05-01T07:38:33;13.10;;;5.93;;
46230;SDS011;31949;51.404;-0.038;2023-05-01T07:41:00;90.18;;;38.25;;
46230;SDS011;31949;51.404;-0.038;2023-05-01T07:43:27;23.00;;;9.82;;
46230;SDS011;31949;51.404;-0.038;2023-05-01T07:45:58;14.98;;;5.75;;
46230;SDS011;31949;51.404;-0.038;2023-05-01T07:48:27;11.75;;;5.38;;
46230;SDS011;31949;51.404;-0.038;2023-05-01T07:50:54;11.07;;;4.80;;
46230;SDS011;31949;51.404;-0.038;2023-05-01T07:53:22;6.45;;;3.63;;
46230;SDS011;31949;51.404;-0.038;2023-05-01T07:55:49;7.40;;;3.60;;
46230;SDS011;31949;51.404;-0.038;2023-05-01T07:58:16;8.70;;;4.15;;
46230;SDS011;31949;51.404;-0.038;2023-05-01T08:00:44;11.93;;;4.45;;
46230;SDS011;31949;51.404;-0.038;2023-05-01T08:03:11;12.77;;;4.80;;
46230;SDS011;31949;51.404;-0.038;2023-05-01T08:05:39;11.38;;;4.90;;
46230;SDS011;31949;51.404;-0.038;2023-05-01T08:08:07;13.70;;;5.32;;
46230;SDS011;31949;51.404;-0.038;2023-05-01T08:10:35;6.13;;;3.83;;
46230;SDS011;31949;51.404;-0.038;2023-05-01T08:13:02;12.68;;;4.13;;
46230;SDS011;31949;51.404;-0.038;2023-05-01T08:15:29;13.70;;;4.72;;
46230;SDS011;31949;51.404;-0.038;2023-05-01T08:17:56;11.48;;;4.88;;
46230;SDS011;31949;51.404;-0.038;2023-05-01T08:20:24;10.23;;;4.47;;
46230;SDS011;31949;51.404;-0.038;2023-05-01T08:22:51;8.25;;;4.53;;
46230;SDS011;31949;51.404;-0.038;2023-05-01T08:25:18;8.35;;;3.83;;
46230;SDS011;31949;51.404;-0.038;2023-05-01T08:27:45;9.23;;;4.47;;
46230;SDS011;31949;51.404;-0.038;2023-05-01T08:30:12;10.93;;;4.20;;
46230;SDS011;31949;51.404;-0.038;2023-05-01T08:32:39;15.13;;;4.70;;
46230;SDS011;31949;51.404;-0.038;2023-05-01T09:35:25;6.90;;;4.50;;
46230;SDS011;31949;51.404;-0.038;2023-05-01T09:37:52;13.25;;;4.72;;
46230;SDS011;31949;51.404;-0.038;2023-05-01T09:40:19;6.40;;;3.92;;
46230;SDS011;31949;51.404;-0.038;2023-05-01T09:42:53;10.32;;;3.83;;
46230;SDS011;31949;51.404;-0.038;2023-05-01T09:45:21;11.82;;;4.78;;
46230;SDS011;31949;51.404;-0.038;2023-05-01T09:47:49;8.60;;;4.93;;
46230;SDS011;31949;51.404;-0.038;2023-05-01T09:53:00;6.63;;;4.63;;
46230;SDS011;31949;51.404;-0.038;2023-05-01T09:55:30;9.15;;;4.72;;
46230;SDS011;31949;51.404;-0.038;2023-05-01T09:57:58;11.85;;;5.55;;
46230;SDS011;31949;51.404;-0.038;2023-05-01T10:00:26;15.95;;;6.45;;
46230;SDS011;31949;51.404;-0.038;2023-05-01T10:02:53;8.93;;;4.45;;
46230;SDS011;31949;51.404;-0.038;2023-05-01T10:05:21;8.40;;;4.68;;
46230;SDS011;31949;51.404;-0.038;2023-05-01T10:07:56;8.30;;;4.75;;
46230;SDS011;31949;51.404;-0.038;2023-05-01T10:10:27;7.55;;;3.92;;
46230;SDS011;31949;51.404;-0.038;2023-05-01T10:12:55;8.98;;;4.07;;
46230;SDS011;31949;51.404;-0.038;2023-05-01T10:15:38;11.88;;;5.05;;
46230;SDS011;31949;51.404;-0.038;2023-05-01T10:18:06;7.38;;;4.18;;
46230;SDS011;31949;51.404;-0.038;2023-05-01T10:20:36;8.30;;;4.22;;
46230;SDS011;31949;51.404;-0.038;2023-05-01T10:23:04;8.20;;;5.18;;
46230;SDS011;31949;51.404;-0.038;2023-05-01T10:33:47;10.00;;;4.00;;
46230;SDS011;31949;51.404;-0.038;2023-05-01T10:36:16;7.55;;;3.97;;
46230;SDS011;31949;51.404;-0.038;2023-05-01T10:38:50;8.43;;;4.07;;
46230;SDS011;31949;51.404;-0.038;2023-05-01T10:41:36;8.25;;;3.33;;
46230;SDS011;31949;51.404;-0.038;2023-05-01T10:44:26;9.57;;;3.53;;
46230;SDS011;31949;51.404;-0.038;2023-05-01T10:46:53;8.77;;;5.15;;
46230;SDS011;31949;51.404;-0.038;2023-05-01T10:49:21;10.80;;;5.35;;
46230;SDS011;31949;51.404;-0.038;2023-05-01T10:54:29;7.03;;;3.90;;
46230;SDS011;31949;51.404;-0.038;2023-05-01T10:56:59;5.55;;;3.92;;
46230;SDS011;31949;51.404;-0.038;2023-05-01T11:00:09;8.90;;;4.70;;
46230;SDS011;31949;51.404;-0.038;2023-05-01T11:02:40;7.90;;;2.70;;
46230;SDS011;31949;51.404;-0.038;2023-05-01T11:05:08;6.57;;;3.03;;
46230;SDS011;31949;51.404;-0.038;2023-05-01T11:07:35;6.13;;;4.30;;
46230;SDS011;31949;51.404;-0.038;2023-05-01T11:10:02;6.47;;;3.40;;
46230;SDS011;31949;51.404;-0.038;2023-05-01T11:12:50;8.63;;;3.53;;
46230;SDS011;31949;51.404;-0.038;2023-05-01T11:15:24;5.50;;;3.45;;
46230;SDS011;31949;51.404;-0.038;2023-05-01T11:18:02;5.32;;;2.60;;
46230;SDS011;31949;51.404;-0.038;2023-05-01T11:23:02;3.42;;;2.33;;
46230;SDS011;31949;51.404;-0.038;2023-05-01T11:25:29;5.35;;;2.70;;
46230;SDS011;31949;51.404;-0.038;2023-05-01T11:27:58;6.90;;;2.72;;
46230;SDS011;31949;51.404;-0.038;2023-05-01T11:30:36;4.20;;;2.28;;
46230;SDS011;31949;51.404;-0.038;2023-05-01T11:33:06;3.40;;;2.33;;
46230;SDS011;31949;51.404;-0.038;2023-05-01T11:35:36;5.28;;;2.47;;
46230;SDS011;31949;51.404;-0.038;2023-05-01T11:38:03;3.95;;;1.80;;
46230;SDS011;31949;51.404;-0.038;2023-05-01T11:40:31;5.70;;;2.80;;
46230;SDS011;31949;51.404;-0.038;2023-05-01T11:45:27;4.20;;;2.13;;
46230;SDS011;31949;51.404;-0.038;2023-05-01T11:47:55;3.60;;;1.38;;
46230;SDS011;31949;51.404;-0.038;2023-05-01T11:50:35;2.33;;;1.85;;
46230;SDS011;31949;51.404;-0.038;2023-05-01T11:53:09;2.40;;;1.17;;
46230;SDS011;31949;51.404;-0.038;2023-05-01T11:55:38;3.35;;;1.67;;
46230;SDS011;31949;51.404;-0.038;2023-05-01T11:58:05;4.15;;;1.85;;
46230;SDS011;31949;51.404;-0.038;2023-05-01T12:00:34;5.25;;;1.98;;
46230;SDS011;31949;51.404;-0.038;2023-05-01T12:03:06;4.43;;;1.90;;
46230;SDS011;31949;51.404;-0.038;2023-05-01T12:05:37;3.42;;;1.60;;
46230;SDS011;31949;51.404;-0.038;2023-05-01T12:08:14;4.25;;;2.08;;
46230;SDS011;31949;51.404;-0.038;2023-05-01T12:10:49;4.82;;;2.15;;
46230;SDS011;31949;51.404;-0.038;2023-05-01T12:13:22;4.35;;;2.00;;
46230;SDS011;31949;51.404;-0.038;2023-05-01T12:15:50;2.10;;;1.90;;
46230;SDS011;31949;51.404;-0.038;2023-05-01T12:18:18;3.92;;;1.45;;
46230;SDS011;31949;51.404;-0.038;2023-05-01T12:20:50;1.95;;;1.50;;
46230;SDS011;31949;51.404;-0.038;2023-05-01T12:23:29;4.05;;;1.88;;
46230;SDS011;31949;51.404;-0.038;2023-05-01T12:25:57;2.72;;;1.58;;
46230;SDS011;31949;51.404;-0.038;2023-05-01T12:28:26;4.22;;;2.25;;
46230;SDS011;31949;51.404;-0.038;2023-05-01T12:39:20;3.25;;;2.00;;
46230;SDS011;31949;51.404;-0.038;2023-05-01T12:41:49;2.25;;;1.83;;
46230;SDS011;31949;51.404;-0.038;2023-05-01T12:44:26;5.30;;;2.60;;
46230;SDS011;31949;51.404;-0.038;2023-05-01T12:47:00;4.13;;;2.30;;
46230;SDS011;31949;51.404;-0.038;2023-05-01T12:49:34;4.82;;;2.92;;
46230;SDS011;31949;51.404;-0.038;2023-05-01T12:52:04;4.47;;;2.42;;
46230;SDS011;31949;51.404;-0.038;2023-05-01T12:54:34;4.00;;;2.72;;
46230;SDS011;31949;51.404;-0.038;2023-05-01T12:57:07;4.63;;;2.05;;
46230;SDS011;31949;51.404;-0.038;2023-05-01T12:59:38;1.90;;;1.63;;
46230;SDS011;31949;51.404;-0.038;2023-05-01T13:02:11;2.17;;;1.20;;
46230;SDS011;31949;51.404;-0.038;2023-05-01T13:04:44;3.33;;;0.90;;
46230;SDS011;31949;51.404;-0.038;2023-05-01T13:07:16;1.80;;;1.17;;
46230;SDS011;31949;51.404;-0.038;2023-05-01T13:09:54;1.70;;;1.13;;
46230;SDS011;31949;51.404;-0.038;2023-05-01T13:12:23;1.50;;;0.85;;
46230;SDS011;31949;51.404;-0.038;2023-05-01T13:14:52;2.38;;;1.38;;
46230;SDS011;31949;51.404;-0.038;2023-05-01T13:17:27;1.38;;;1.20;;
46230;SDS011;31949;51.404;-0.038;2023-05-01T13:19:56;2.30;;;1.10;;
46230;SDS011;31949;51.404;-0.038;2023-05-01T13:25:00;2.45;;;1.60;;
46230;SDS011;31949;51.404;-0.038;2023-05-01T13:27:31;2.15;;;1.38;;
46230;SDS011;31949;51.404;-0.038;2023-05-01T13:29:58;3.38;;;1.85;;
46230;SDS011;31949;51.404;-0.038;2023-05-01T13:32:26;3.47;;;2.03;;
46230;SDS011;31949;51.404;-0.038;2023-05-01T13:34:54;3.80;;;1.65;;
46230;SDS011;31949;51.404;-0.038;2023-05-01T13:37:25;3.27;;;1.77;;
46230;SDS011;31949;51.404;-0.038;2023-05-01T13:39:55;2.17;;;1.58;;
46230;SDS011;31949;51.404;-0.038;2023-05-01T13:42:26;9.23;;;2.03;;
46230;SDS011;31949;51.404;-0.038;2023-05-01T13:44:54;1.60;;;1.27;;
46230;SDS011;31949;51.404;-0.038;2023-05-01T13:47:23;2.33;;;1.75;;
46230;SDS011;31949;51.404;-0.038;2023-05-01T13:52:22;3.08;;;1.40;;
46230;SDS011;31949;51.404;-0.038;2023-05-01T13:54:49;2.58;;;1.30;;
46230;SDS011;31949;51.404;-0.038;2023-05-01T13:57:21;3.73;;;1.70;;
46230;SDS011;31949;51.404;-0.038;2023-05-01T13:59:48;3.47;;;1.80;;
46230;SDS011;31949;51.404;-0.038;2023-05-01T14:02:19;1.95;;;1.17;;
46230;SDS011;31949;51.404;-0.038;2023-05-01T14:04:50;2.30;;;1.60;;
46230;SDS011;31949;51.404;-0.038;2023-05-01T14:07:18;3.10;;;1.85;;
46230;SDS011;31949;51.404;-0.038;2023-05-01T14:09:51;2.90;;;1.83;;
46230;SDS011;31949;51.404;-0.038;2023-05-01T14:12:23;2.83;;;1.58;;
46230;SDS011;31949;51.404;-0.038;2023-05-01T14:14:54;4.20;;;1.50;;
46230;SDS011;31949;51.404;-0.038;2023-05-01T14:17:27;1.58;;;1.48;;
46230;SDS011;31949;51.404;-0.038;2023-05-01T14:19:57;1.73;;;1.48;;
46230;SDS011;31949;51.404;-0.038;2023-05-01T14:22:24;3.90;;;1.70;;
46230;SDS011;31949;51.404;-0.038;2023-05-01T14:24:56;1.33;;;1.13;;
46230;SDS011;31949;51.404;-0.038;2023-05-01T14:27:24;2.17;;;1.60;;
46230;SDS011;31949;51.404;-0.038;2023-05-01T14:29:53;3.92;;;2.30;;
46230;SDS011;31949;51.404;-0.038;2023-05-01T14:32:20;2.85;;;1.42;;
46230;SDS011;31949;51.404;-0.038;2023-05-01T14:34:48;2.47;;;1.52;;
46230;SDS011;31949;51.404;-0.038;2023-05-01T14:37:15;3.22;;;1.20;;
46230;SDS011;31949;51.404;-0.038;2023-05-01T14:39:42;3.42;;;1.75;;
46230;SDS011;31949;51.404;-0.038;2023-05-01T14:42:10;4.60;;;3.00;;
46230;SDS011;31949;51.404;-0.038;2023-05-01T14:44:38;4.95;;;3.15;;
46230;SDS011;31949;51.404;-0.038;2023-05-01T14:47:07;3.88;;;1.50;;
46230;SDS011;31949;51.404;-0.038;2023-05-01T14:49:35;2.15;;;1.80;;
46230;SDS011;31949;51.404;-0.038;2023-05-01T14:52:02;3.42;;;1.55;;
46230;SDS011;31949;51.404;-0.038;2023-05-01T14:54:29;1.75;;;1.40;;
46230;SDS011;31949;51.404;-0.038;2023-05-01T14:57:01;1.65;;;1.20;;
46230;SDS011;31949;51.404;-0.038;2023-05-01T14:59:31;2.40;;;1.00;;
46230;SDS011;31949;51.404;-0.038;2023-05-01T15:01:58;2.45;;;1.58;;
46230;SDS011;31949;51.404;-0.038;2023-05-01T15:04:26;3.33;;;1.15;;
46230;SDS011;31949;51.404;-0.038;2023-05-01T15:06:53;2.05;;;1.30;;
46230;SDS011;31949;51.404;-0.038;2023-05-01T15:09:21;1.55;;;1.38;;
46230;SDS011;31949;51.404;-0.038;2023-05-01T15:11:48;1.85;;;1.52;;
46230;SDS011;31949;51.404;-0.038;2023-05-01T15:14:15;1.73;;;1.05;;
46230;SDS011;31949;51.404;-0.038;2023-05-01T15:16:42;1.77;;;0.90;;
46230;SDS011;31949;51.404;-0.038;2023-05-01T15:19:09;3.38;;;1.17;;
46230;SDS011;31949;51.404;-0.038;2023-05-01T15:21:36;1.65;;;0.90;;
46230;SDS011;31949;51.404;-0.038;2023-05-01T15:24:03;2.28;;;1.00;;
46230;SDS011;31949;51.404;-0.038;2023-05-01T15:26:31;1.20;;;0.65;;
46230;SDS011;31949;51.404;-0.038;2023-05-01T15:28:58;3.25;;;1.27;;
46230;SDS011;31949;51.404;-0.038;2023-05-01T15:31:25;2.47;;;1.00;;
46230;SDS011;31949;51.404;-0.038;2023-05-01T15:33:53;1.33;;;0.80;;
46230;SDS011;31949;51.404;-0.038;2023-05-01T15:36:20;2.83;;;0.90;;
46230;SDS011;31949;51.404;-0.038;2023-05-01T15:38:47;2.60;;;1.13;;
46230;SDS011;31949;51.404;-0.038;2023-05-01T15:41:14;2.08;;;1.10;;
46230;SDS011;31949;51.404;-0.038;2023-05-01T15:43:44;1.35;;;1.13;;
46230;SDS011;31949;51.404;-0.038;2023-05-01T15:46:11;2.63;;;1.25;;
46230;SDS011;31949;51.404;-0.038;2023-05-01T15:48:40;2.22;;;1.50;;
46230;SDS011;31949;51.404;-0.038;2023-05-01T15:51:07;1.05;;;1.00;;
46230;SDS011;31949;51.404;-0.038;2023-05-01T15:53:35;2.28;;;1.50;;
46230;SDS011;31949;51.404;-0.038;2023-05-01T15:56:02;1.70;;;1.45;;
46230;SDS011;31949;51.404;-0.038;2023-05-01T15:58:29;1.48;;;1.08;;
46230;SDS011;31949;51.404;-0.038;2023-05-01T16:00:56;3.53;;;1.10;;
46230;SDS011;31949;51.404;-0.038;2023-05-01T16:03:23;1.55;;;1.30;;
46230;SDS011;31949;51.404;-0.038;2023-05-01T16:05:50;2.45;;;1.27;;
46230;SDS011;31949;51.404;-0.038;2023-05-01T16:08:18;1.65;;;1.17;;
46230;SDS011;31949;51.404;-0.038;2023-05-01T16:10:45;1.92;;;1.40;;
46230;SDS011;31949;51.404;-0.038;2023-05-01T16:13:12;1.70;;;1.33;;
46230;SDS011;31949;51.404;-0.038;2023-05-01T16:15:40;5.03;;;1.42;;
46230;SDS011;31949;51.404;-0.038;2023-05-01T16:18:07;1.55;;;1.13;;
46230;SDS011;31949;51.404;-0.038;2023-05-01T16:20:40;1.58;;;1.02;;
46230;SDS011;31949;51.404;-0.038;2023-05-01T16:23:08;2.50;;;1.70;;
46230;SDS011;31949;51.404;-0.038;2023-05-01T16:25:41;3.88;;;2.10;;
46230;SDS011;31949;51.404;-0.038;2023-05-01T16:28:08;1.73;;;1.25;;
46230;SDS011;31949;51.404;-0.038;2023-05-01T16:30:43;1.83;;;1.40;;
46230;SDS011;31949;51.404;-0.038;2023-05-01T16:33:13;2.03;;;1.23;;